Time;durP1;ratioP1;P1;durP2;ratioP2;P2;SDS_P1;SDS_P2;PMS_P1;PMS_P2;Temp;Humidity;BMP_temperature;BMP_pressure;BME280_temperature;BME280_humidity;BME280_pressure;Samples;Min_cycle;Max_cycle;Signal;HPM_P1;HPM_P2
2022/05/20 00:00:49;;;;;;;45.97;40.80;;;;;;;12.79;94.82;102122.59;5053079;28;20132;-82
2022/05/20 00:03:18;;;;;;;44.25;39.53;;;;;;;12.71;94.45;102118.75;5071774;28;20087;-82
2022/05/20 00:05:43;;;;;;;44.28;39.38;;;;;;;12.70;94.35;102122.34;5070615;28;20090;-82
2022/05/20 00:08:11;;;;;;;45.83;40.45;;;;;;;12.68;93.93;102118.94;5070029;28;20087;-82
2022/05/20 00:10:37;;;;;;;45.78;40.17;;;;;;;12.66;94.13;102121.69;5053784;28;20064;-82
2022/05/20 00:13:06;;;;;;;45.63;39.72;;;;;;;12.62;93.61;102119.31;5071010;28;20062;-82
2022/05/20 00:15:34;;;;;;;42.38;37.88;;;;;;;12.63;94.01;102115.75;5053486;28;20105;-82
2022/05/20 00:17:59;;;;;;;44.38;39.58;;;;;;;12.54;93.87;102114.53;5052978;28;20030;-82
2022/05/20 00:20:27;;;;;;;42.28;37.70;;;;;;;12.53;94.25;102118.13;5070817;28;20116;-82
2022/05/20 00:22:55;;;;;;;44.25;39.47;;;;;;;12.49;94.10;102114.81;5071584;28;20128;-82
2022/05/20 00:28:06;;;;;;;41.65;37.17;;;;;;;12.42;93.37;102118.78;5059712;28;20524;-82
2022/05/20 00:30:34;;;;;;;45.13;39.85;;;;;;;12.38;94.24;102117.25;5065878;28;20024;-83
2022/05/20 00:33:00;;;;;;;44.30;38.65;;;;;;;12.37;93.75;102112.91;5070166;28;20096;-82
2022/05/20 00:35:26;;;;;;;44.92;39.38;;;;;;;12.35;94.00;102103.38;5071429;28;20430;-82
2022/05/20 00:37:52;;;;;;;44.72;39.90;;;;;;;12.31;94.08;102107.16;5071359;28;20685;-82
2022/05/20 00:40:26;;;;;;;46.10;40.45;;;;;;;12.23;94.61;102111.13;5070651;28;20069;-82
2022/05/20 00:43:10;;;;;;;46.08;40.95;;;;;;;12.23;94.62;102102.34;5069544;28;20020;-82
2022/05/20 00:45:36;;;;;;;49.70;40.88;;;;;;;12.24;94.37;102106.69;5052102;28;20492;-82
2022/05/20 00:48:01;;;;;;;48.97;40.47;;;;;;;12.17;94.08;102105.38;5068608;28;20163;-82
2022/05/20 00:50:27;;;;;;;43.85;38.60;;;;;;;12.16;94.16;102106.31;5071102;28;20512;-82
2022/05/20 00:52:53;;;;;;;42.15;37.47;;;;;;;12.12;93.69;102102.16;5070588;28;20020;-82
2022/05/20 00:55:22;;;;;;;44.42;37.25;;;;;;;12.09;93.43;102102.34;5069949;28;20065;-82
2022/05/20 00:58:00;;;;;;;40.90;36.45;;;;;;;12.06;93.84;102102.53;5070239;28;20028;-82
2022/05/20 01:00:29;;;;;;;41.08;36.67;;;;;;;12.03;93.59;102092.16;5051105;28;20120;-82
2022/05/20 01:03:01;;;;;;;40.58;36.17;;;;;;;11.99;93.43;102104.66;5069996;28;20036;-82
2022/05/20 01:05:32;;;;;;;39.87;35.53;;;;;;;12.00;93.42;102100.25;5052587;28;20495;-82
2022/05/20 01:07:59;;;;;;;41.17;36.78;;;;;;;11.97;93.41;102105.69;5047232;28;20034;-82
2022/05/20 01:10:24;;;;;;;41.53;37.05;;;;;;;11.95;93.59;102105.78;5032243;28;20120;-82
2022/05/20 01:12:51;;;;;;;42.28;35.92;;;;;;;11.90;93.78;102106.06;5050200;28;20067;-82
2022/05/20 01:15:17;;;;;;;42.78;37.80;;;;;;;11.93;94.65;102110.31;5061651;28;20260;-82
2022/05/20 01:17:44;;;;;;;42.95;37.97;;;;;;;11.90;94.86;102100.78;5054601;28;20404;-82
2022/05/20 01:20:18;;;;;;;43.38;37.53;;;;;;;11.88;94.85;102112.38;5050241;28;20427;-82
2022/05/20 01:22:54;;;;;;;41.13;36.50;;;;;;;11.83;94.30;102107.38;5049204;28;20036;-82
2022/05/20 01:25:21;;;;;;;39.47;35.17;;;;;;;11.84;94.75;102101.16;5050383;28;20055;-82
2022/05/20 01:27:47;;;;;;;41.10;36.60;;;;;;;11.78;94.07;102095.41;5050467;28;20024;-82
2022/05/20 01:30:16;;;;;;;42.75;36.17;;;;;;;11.81;94.71;102097.84;5031904;28;20381;-82
2022/05/20 01:32:41;;;;;;;43.33;36.85;;;;;;;11.81;94.95;102088.16;5037435;28;20079;-82
2022/05/20 01:35:16;;;;;;;45.15;39.67;;;;;;;11.78;94.83;102085.72;5050477;28;20049;-82
2022/05/20 01:37:41;;;;;;;47.47;39.47;;;;;;;11.75;95.27;102088.50;5049886;28;20029;-82
2022/05/20 01:40:11;;;;;;;51.60;40.17;;;;;;;11.73;95.71;102079.81;5050324;28;20028;-82
2022/05/20 01:42:54;;;;;;;48.05;40.22;;;;;;;11.76;96.50;102084.91;5066361;28;20191;-82
2022/05/20 01:45:35;;;;;;;48.17;39.35;;;;;;;11.78;95.89;102087.50;5069581;28;20078;-83
2022/05/20 01:48:12;;;;;;;44.50;38.40;;;;;;;11.74;95.39;102078.03;5068259;28;20025;-82
2022/05/20 01:50:51;;;;;;;50.78;40.95;;;;;;;11.71;95.73;102065.88;5060770;28;20031;-82
2022/05/20 01:53:27;;;;;;;48.00;41.00;;;;;;;11.68;95.69;102068.72;5051652;28;20115;-82
2022/05/20 01:56:05;;;;;;;45.67;38.95;;;;;;;11.65;95.31;102071.53;5069990;28;20059;-82
2022/05/20 01:58:34;;;;;;;44.30;38.80;;;;;;;11.59;95.08;102082.41;5069470;28;20517;-82
2022/05/20 02:01:05;;;;;;;47.53;38.78;;;;;;;11.59;95.19;102077.13;5064864;28;20043;-83
2022/05/20 02:04:11;;;;;;;44.38;37.78;;;;;;;11.58;94.92;102076.28;5051296;28;20399;-82
2022/05/20 02:06:41;;;;;;;43.03;36.97;;;;;;;11.58;94.62;102067.53;5053002;28;20105;-82
2022/05/20 02:09:20;;;;;;;44.13;37.90;;;;;;;11.58;94.91;102064.88;5062990;28;20020;-82
2022/05/20 02:11:51;;;;;;;42.33;36.92;;;;;;;11.54;95.17;102058.94;5068724;28;20441;-82
2022/05/20 02:14:43;;;;;;;46.65;37.50;;;;;;;11.55;94.81;102063.28;5069165;28;20107;-82
2022/05/20 02:17:14;;;;;;;42.47;36.38;;;;;;;11.49;94.63;102066.28;5068803;28;20032;-83
2022/05/20 02:19:54;;;;;;;42.15;36.05;;;;;;;11.48;94.93;102064.59;5068448;28;20272;-82
2022/05/20 02:22:25;;;;;;;44.08;37.13;;;;;;;11.43;95.04;102069.28;5053671;28;20036;-82
2022/05/20 02:24:52;;;;;;;42.63;36.63;;;;;;;11.39;94.74;102069.56;5048743;28;20048;-82
2022/05/20 02:27:28;;;;;;;45.80;37.42;;;;;;;11.39;95.74;102064.28;5048937;28;20061;-82
2022/05/20 02:30:11;;;;;;;42.88;36.03;;;;;;;11.40;94.75;102065.97;5031172;28;20021;-82
2022/05/20 02:33:07;;;;;;;40.83;34.97;;;;;;;11.39;94.91;102059.00;5030692;28;20435;-82
2022/05/20 02:35:34;;;;;;;41.92;36.47;;;;;;;11.29;95.22;102059.53;5038470;28;20033;-82
2022/05/20 02:38:08;;;;;;;39.78;35.40;;;;;;;11.31;95.44;102072.63;5048998;28;20515;-82
2022/05/20 02:40:34;;;;;;;39.58;35.38;;;;;;;11.29;94.77;102066.59;5034040;28;20036;-82
2022/05/20 02:43:05;;;;;;;39.60;35.22;;;;;;;11.23;94.88;102075.72;5069556;28;20361;-82
2022/05/20 02:45:31;;;;;;;40.60;35.75;;;;;;;11.23;95.74;102065.19;5069687;28;20086;-82
2022/05/20 02:47:57;;;;;;;41.72;37.35;;;;;;;11.20;95.81;102054.78;5068534;28;20020;-81
2022/05/20 02:50:22;;;;;;;43.78;36.80;;;;;;;11.16;95.92;102053.25;5060829;28;20027;-82
2022/05/20 02:52:47;;;;;;;39.22;34.35;;;;;;;11.16;95.19;102063.81;5049460;28;20443;-81
2022/05/20 02:55:13;;;;;;;40.00;34.72;;;;;;;11.14;95.41;102060.41;5049527;28;20021;-81
2022/05/20 02:57:38;;;;;;;39.15;32.95;;;;;;;11.16;95.30;102060.31;5058958;28;20052;-81
2022/05/20 03:05:35;;;;;;;38.05;34.03;;;;;;;11.13;95.58;102053.44;5053860;28;20111;-81
2022/05/20 03:08:01;;;;;;;41.00;35.55;;;;;;;11.11;96.03;102047.41;5057279;28;20387;-81
2022/05/20 03:10:26;;;;;;;40.92;34.53;;;;;;;11.09;96.28;102046.66;5073112;28;20097;-81
2022/05/20 03:12:58;;;;;;;39.15;34.13;;;;;;;11.11;95.68;102046.56;5053114;28;20056;-81
2022/05/20 03:15:23;;;;;;;38.70;34.50;;;;;;;11.05;95.55;102045.13;5053387;28;20565;-81
2022/05/20 03:17:48;;;;;;;37.20;32.67;;;;;;;11.06;95.77;102051.25;5054588;28;20028;-81
2022/05/20 03:20:14;;;;;;;40.95;34.95;;;;;;;11.03;95.80;102052.28;5054987;28;20333;-81
2022/05/20 03:22:42;;;;;;;40.13;34.58;;;;;;;11.00;95.52;102055.06;5071606;28;20056;-81
2022/05/20 03:25:08;;;;;;;38.35;33.80;;;;;;;11.02;96.00;102053.19;5072503;28;20032;-81
2022/05/20 03:27:34;;;;;;;40.22;34.72;;;;;;;11.03;96.10;102048.78;5072735;28;20039;-81
2022/05/20 03:29:59;;;;;;;38.25;33.35;;;;;;;11.04;95.67;102042.59;5066395;28;20477;-81
2022/05/20 03:32:25;;;;;;;36.90;32.20;;;;;;;11.03;95.57;102035.63;5052708;28;20025;-81
2022/05/20 03:34:50;;;;;;;40.45;33.47;;;;;;;10.98;95.63;102043.78;5052252;28;20115;-81
2022/05/20 03:37:16;;;;;;;36.95;32.88;;;;;;;10.98;96.28;102041.16;5033929;28;20381;-82
2022/05/20 03:39:41;;;;;;;38.08;33.50;;;;;;;10.99;96.16;102040.22;5053938;28;20021;-82
2022/05/20 03:42:06;;;;;;;36.13;32.17;;;;;;;10.95;95.71;102036.06;5054197;28;20032;-81
2022/05/20 03:44:32;;;;;;;35.67;31.77;;;;;;;10.98;96.23;102038.53;5071341;28;20024;-82
2022/05/20 03:46:58;;;;;;;36.97;32.97;;;;;;;10.98;96.72;102038.53;5052475;28;20028;-81
2022/05/20 03:49:27;;;;;;;40.72;35.53;;;;;;;11.05;97.71;102034.59;5052986;28;20496;-81
2022/05/20 03:51:56;;;;;;;44.13;37.00;;;;;;;11.10;98.84;102029.06;5071767;28;20013;-81
2022/05/20 03:54:24;;;;;;;40.75;36.22;;;;;;;11.16;99.05;102029.56;5071328;28;20484;-81
2022/05/20 03:56:50;;;;;;;41.15;36.45;;;;;;;11.20;98.95;102028.44;5035831;28;20445;-82
2022/05/20 03:59:18;;;;;;;41.20;34.55;;;;;;;11.22;98.93;102021.31;5072255;28;20020;-82
2022/05/20 04:01:59;;;;;;;41.92;33.72;;;;;;;11.27;98.86;102014.00;5052472;28;20079;-81
2022/05/20 04:04:41;;;;;;;34.13;30.13;;;;;;;11.29;98.76;102012.13;5037375;28;20104;-81
2022/05/20 04:07:20;;;;;;;26.98;24.17;;;;;;;11.24;98.22;102008.91;5061511;28;20036;-81
2022/05/20 04:09:48;;;;;;;26.02;23.20;;;;;;;11.13;98.15;102000.75;5051857;28;20112;-82
2022/05/20 04:12:21;;;;;;;25.50;22.83;;;;;;;11.12;98.55;102012.22;5071084;28;20086;-81
2022/05/20 04:14:47;;;;;;;25.52;22.75;;;;;;;11.14;98.30;102002.44;5052170;28;20041;-81
2022/05/20 04:17:12;;;;;;;26.35;23.55;;;;;;;11.15;98.27;101998.88;5060840;28;20034;-82
2022/05/20 04:19:37;;;;;;;26.83;23.98;;;;;;;11.15;97.67;101996.25;5061173;28;20037;-82
2022/05/20 04:22:10;;;;;;;28.08;25.23;;;;;;;11.15;98.29;101992.75;5048403;28;20035;-83
2022/05/20 04:24:36;;;;;;;30.58;26.67;;;;;;;11.15;98.30;101995.41;5067435;28;20053;-82
2022/05/20 04:27:02;;;;;;;31.40;26.58;;;;;;;11.21;98.00;102001.19;5069316;28;20031;-83
2022/05/20 04:29:27;;;;;;;32.38;28.73;;;;;;;11.28;98.34;101999.03;5053666;28;20146;-82
2022/05/20 04:31:53;;;;;;;32.70;28.45;;;;;;;11.38;98.06;101994.91;5060227;28;20089;-82
2022/05/20 04:34:19;;;;;;;34.45;30.77;;;;;;;11.41;98.03;101991.25;5071384;28;20438;-82
2022/05/20 04:36:45;;;;;;;49.08;39.55;;;;;;;11.52;99.59;102002.00;5070121;28;20024;-82
2022/05/20 04:39:11;;;;;;;68.75;53.20;;;;;;;11.57;100.00;101999.94;5060522;28;20021;-83
2022/05/20 04:47:09;;;;;;;65.20;51.22;;;;;;;11.66;100.00;102006.47;5061421;28;20090;-82
2022/05/20 04:49:39;;;;;;;62.15;50.35;;;;;;;11.71;100.00;102009.69;5071071;28;20044;-82
2022/05/20 04:52:05;;;;;;;64.22;52.42;;;;;;;11.74;100.00;102020.03;5069676;28;20028;-82
2022/05/20 04:57:32;;;;;;;73.32;55.03;;;;;;;11.87;100.00;102028.94;5072616;28;20086;-82
2022/05/20 05:00:05;;;;;;;71.53;55.92;;;;;;;12.04;100.00;102020.00;5068635;28;20670;-82
2022/05/20 05:02:31;;;;;;;90.43;65.40;;;;;;;12.20;100.00;102024.22;5067540;28;20032;-82
2022/05/20 05:04:57;;;;;;;94.22;68.25;;;;;;;12.30;100.00;102016.59;5069285;28;20024;-82
2022/05/20 05:07:22;;;;;;;90.57;67.30;;;;;;;12.38;100.00;102018.75;5070434;28;20043;-82
2022/05/20 05:09:48;;;;;;;92.30;68.55;;;;;;;12.46;100.00;102017.34;5071887;28;20456;-82
2022/05/20 05:12:15;;;;;;;86.88;65.50;;;;;;;12.55;100.00;102007.97;5071109;28;20028;-82
2022/05/20 05:14:46;;;;;;;90.72;64.90;;;;;;;12.63;100.00;102010.13;5070227;28;20027;-82
2022/05/20 05:17:13;;;;;;;86.50;64.53;;;;;;;12.69;100.00;102022.94;5070103;28;20028;-82
2022/05/20 05:19:44;;;;;;;84.78;64.80;;;;;;;12.77;100.00;102025.91;5054123;28;20088;-82
2022/05/20 05:22:10;;;;;;;87.93;64.78;;;;;;;12.84;100.00;102017.53;5048840;28;20051;-82
2022/05/20 05:24:37;;;;;;;87.75;65.28;;;;;;;12.93;100.00;102025.78;5051555;28;20063;-82
2022/05/20 05:27:06;;;;;;;83.65;64.05;;;;;;;12.99;100.00;102031.53;5052109;28;20086;-82
2022/05/20 05:29:35;;;;;;;83.78;63.40;;;;;;;13.03;100.00;102021.59;5032476;28;20035;-82
2022/05/20 05:32:00;;;;;;;82.32;60.10;;;;;;;13.10;100.00;102023.75;5050780;28;20025;-82
2022/05/20 05:34:26;;;;;;;82.28;60.55;;;;;;;13.10;100.00;102012.31;5057675;28;20073;-83
2022/05/20 05:36:51;;;;;;;81.28;57.35;;;;;;;13.09;100.00;102000.91;5062618;28;20368;-82
2022/05/20 05:39:17;;;;;;;76.10;57.70;;;;;;;13.06;100.00;101998.47;5070286;28;20024;-82
2022/05/20 05:41:42;;;;;;;76.80;57.70;;;;;;;13.04;100.00;101983.66;5069894;28;20031;-82
2022/05/20 05:44:07;;;;;;;76.63;58.22;;;;;;;13.07;100.00;101986.09;5069461;28;20074;-82
2022/05/20 05:46:33;;;;;;;75.32;58.58;;;;;;;13.18;100.00;101995.03;5069894;28;20051;-82
2022/05/20 05:48:58;;;;;;;66.30;52.85;;;;;;;13.25;100.00;101997.28;5069447;28;20488;-82
2022/05/20 05:51:24;;;;;;;61.45;52.63;;;;;;;13.35;100.00;101987.78;5048360;28;20113;-82
2022/05/20 05:53:50;;;;;;;60.20;49.42;;;;;;;13.39;99.40;101984.00;5031579;28;20051;-82
2022/05/20 05:56:15;;;;;;;55.28;46.90;;;;;;;13.43;98.70;101981.03;5031418;28;20111;-82
2022/05/20 05:58:41;;;;;;;54.80;46.55;;;;;;;13.51;98.88;101985.78;5049562;28;20481;-83
2022/05/20 06:01:06;;;;;;;48.55;41.85;;;;;;;13.61;97.46;101991.28;5050728;28;20115;-83
2022/05/20 06:03:32;;;;;;;52.65;43.03;;;;;;;13.69;97.75;101989.00;5051348;28;20038;-82
2022/05/20 06:05:57;;;;;;;50.13;41.83;;;;;;;13.74;97.12;101992.16;5069021;28;20419;-82
2022/05/20 06:08:23;;;;;;;45.35;39.17;;;;;;;13.76;95.58;101993.75;5044184;28;20457;-82
2022/05/20 06:10:52;;;;;;;45.42;37.10;;;;;;;13.83;95.20;101988.03;5054269;28;20032;-83
2022/05/20 06:13:26;;;;;;;45.08;37.22;;;;;;;13.87;95.48;101981.56;5049499;28;20102;-83
2022/05/20 06:15:55;;;;;;;42.28;36.17;;;;;;;13.93;94.95;101975.84;5047047;28;20508;-84
2022/05/20 06:18:21;;;;;;;39.83;32.85;;;;;;;13.96;94.14;101978.28;5069725;28;20475;-84
2022/05/20 06:20:46;;;;;;;39.03;32.47;;;;;;;14.04;94.24;101979.47;5051762;28;20130;-84
2022/05/20 06:23:12;;;;;;;33.22;27.63;;;;;;;14.10;92.27;101983.47;5069720;28;20400;-84
2022/05/20 06:25:37;;;;;;;32.92;26.50;;;;;;;14.20;91.59;101971.25;5069455;28;20064;-84
2022/05/20 06:28:08;;;;;;;30.13;26.48;;;;;;;14.34;91.11;101971.13;5058157;28;20111;-83
2022/05/20 06:30:34;;;;;;;32.60;25.08;;;;;;;14.41;88.89;101967.09;5060872;28;20047;-84
2022/05/20 06:33:01;;;;;;;29.73;22.63;;;;;;;14.46;86.23;101973.88;5050675;28;20028;-84
2022/05/20 06:40:55;;;;;;;23.90;20.70;;;;;;;14.61;85.92;101951.56;5069246;28;20063;-82
2022/05/20 06:43:21;;;;;;;25.25;19.23;;;;;;;14.68;85.25;101947.50;5051142;28;20116;-82
2022/05/20 06:45:51;;;;;;;27.38;19.77;;;;;;;14.83;86.79;101951.69;5058553;28;20098;-82
2022/05/20 06:48:19;;;;;;;19.33;16.70;;;;;;;14.95;82.94;101944.63;5051166;28;20032;-82
2022/05/20 06:50:45;;;;;;;20.25;16.75;;;;;;;14.99;81.16;101941.63;5069290;28;20077;-82
2022/05/20 06:53:10;;;;;;;22.05;16.90;;;;;;;15.10;80.90;101939.97;5068742;28;20032;-82
2022/05/20 06:55:37;;;;;;;22.67;18.63;;;;;;;15.22;81.76;101944.38;5069129;28;20038;-84
2022/05/20 06:58:02;;;;;;;24.05;19.25;;;;;;;15.25;81.96;101942.31;5068943;28;20031;-84
2022/05/20 07:00:28;;;;;;;20.08;17.58;;;;;;;15.33;81.67;101939.94;5068223;28;20028;-85
2022/05/20 07:02:54;;;;;;;21.15;16.90;;;;;;;15.45;80.09;101943.44;5067265;28;20037;-85
2022/05/20 07:05:20;;;;;;;19.30;17.00;;;;;;;15.61;79.57;101930.72;5067833;28;20028;-84
2022/05/20 07:07:48;;;;;;;19.48;16.00;;;;;;;15.80;78.54;101937.25;5067306;28;20365;-85
2022/05/20 07:10:15;;;;;;;21.70;16.05;;;;;;;15.96;78.30;101925.28;5065819;28;20036;-85
2022/05/20 07:12:41;;;;;;;19.63;16.17;;;;;;;16.08;78.11;101920.81;5050366;28;20476;-85
2022/05/20 07:15:07;;;;;;;20.83;15.88;;;;;;;16.22;76.89;101917.06;5068142;28;20028;-85
2022/05/20 07:17:33;;;;;;;19.55;15.68;;;;;;;16.33;77.44;101916.16;5068663;28;20027;-86
2022/05/20 07:19:59;;;;;;;18.15;15.95;;;;;;;16.44;76.24;101906.38;5046016;28;20400;-85
2022/05/20 07:22:25;;;;;;;19.33;14.27;;;;;;;16.49;75.71;101912.16;5062462;28;20031;-85
2022/05/20 07:24:50;;;;;;;18.70;14.38;;;;;;;16.68;75.55;101908.84;5068241;28;20053;-85
2022/05/20 07:27:19;;;;;;;16.05;14.00;;;;;;;16.91;73.10;101905.13;5050642;28;20028;-85
2022/05/20 07:29:44;;;;;;;16.25;13.23;;;;;;;17.23;75.50;101904.25;5051204;28;20025;-83
2022/05/20 07:32:10;;;;;;;16.40;12.75;;;;;;;17.37;72.90;101895.91;5050581;28;20024;-84
2022/05/20 07:34:35;;;;;;;13.68;11.88;;;;;;;17.65;71.38;101893.53;5050100;28;20048;-85
2022/05/20 07:37:01;;;;;;;13.98;9.82;;;;;;;17.79;68.69;101903.84;5067535;28;20364;-82
2022/05/20 07:39:26;;;;;;;15.57;9.55;;;;;;;17.83;69.31;101899.94;5068822;28;20083;-83
2022/05/20 07:41:52;;;;;;;11.90;8.82;;;;;;;17.95;66.28;101892.66;5070030;28;20024;-83
2022/05/20 07:44:18;;;;;;;13.13;8.75;;;;;;;18.02;65.02;101886.69;5072655;28;20109;-83
2022/05/20 07:46:43;;;;;;;14.18;8.93;;;;;;;18.02;65.81;101876.03;5072657;28;20034;-83
2022/05/20 07:49:08;;;;;;;11.25;8.18;;;;;;;18.13;66.46;101867.91;5028633;28;20397;-84
2022/05/20 07:51:37;;;;;;;12.80;8.35;;;;;;;18.14;66.22;101858.94;5051495;28;20024;-83
2022/05/20 07:54:08;;;;;;;11.27;7.05;;;;;;;18.34;64.64;101859.78;5064975;28;20377;-83
2022/05/20 07:56:38;;;;;;;11.88;7.45;;;;;;;18.64;62.26;101858.88;5034911;28;20025;-84
2022/05/20 07:59:11;;;;;;;10.80;7.10;;;;;;;18.96;63.51;101860.38;5051693;28;20496;-84
2022/05/20 08:01:41;;;;;;;11.50;6.65;;;;;;;19.05;60.30;101839.00;5053050;28;20466;-84
2022/05/20 08:06:59;;;;;;;9.75;6.82;;;;;;;19.34;58.39;101844.28;5052599;28;20106;-85
2022/05/20 08:09:26;;;;;;;8.93;6.97;;;;;;;19.40;59.19;101838.34;5064545;28;20450;-85
2022/05/20 08:11:51;;;;;;;10.77;6.38;;;;;;;19.49;58.36;101841.13;5033513;28;20025;-85
2022/05/20 08:14:16;;;;;;;10.02;7.18;;;;;;;19.67;58.49;101831.38;5052459;28;20028;-84
2022/05/20 08:16:42;;;;;;;9.60;6.70;;;;;;;19.76;58.18;101840.31;5051026;28;20033;-84
2022/05/20 08:19:07;;;;;;;14.75;7.80;;;;;;;19.89;57.04;101833.63;5052011;28;20124;-84
2022/05/20 08:21:32;;;;;;;12.27;7.50;;;;;;;20.02;57.58;101834.13;5034430;28;20028;-84
2022/05/20 08:23:58;;;;;;;10.85;6.93;;;;;;;20.00;56.44;101825.38;5051434;28;20037;-85
2022/05/20 08:26:23;;;;;;;10.27;6.85;;;;;;;19.92;55.96;101833.31;5058219;28;20039;-84
2022/05/20 08:28:49;;;;;;;8.18;6.82;;;;;;;20.00;58.30;101825.38;5052120;28;20025;-84
2022/05/20 08:31:15;;;;;;;11.75;6.82;;;;;;;19.96;55.96;101818.66;5050920;28;20021;-84
2022/05/20 08:33:41;;;;;;;10.05;7.28;;;;;;;20.01;56.17;101815.53;5051441;28;20025;-83
2022/05/20 08:36:06;;;;;;;10.82;6.72;;;;;;;19.92;57.13;101817.28;5051275;28;20040;-84
2022/05/20 08:38:31;;;;;;;11.50;7.75;;;;;;;19.80;58.16;101807.81;5032787;28;20107;-84
2022/05/20 08:40:59;;;;;;;9.60;7.30;;;;;;;19.71;56.96;101795.38;5033010;28;20476;-84
2022/05/20 08:43:28;;;;;;;10.15;7.82;;;;;;;19.57;57.15;101786.00;5039220;28;20103;-84
2022/05/20 08:45:53;;;;;;;13.48;8.60;;;;;;;19.55;57.67;101771.97;5070391;28;20067;-84
2022/05/20 08:48:19;;;;;;;12.93;8.13;;;;;;;19.57;60.07;101767.31;5053760;28;20056;-84
2022/05/20 08:50:48;;;;;;;12.13;8.23;;;;;;;19.76;58.41;101769.06;5053971;28;20021;-84
2022/05/20 08:53:35;;;;;;;12.20;9.02;;;;;;;19.93;59.84;101757.53;5053317;28;20035;-85
2022/05/20 08:56:04;;;;;;;11.32;9.00;;;;;;;20.20;58.85;101745.94;5054087;28;20020;-84
2022/05/20 08:58:29;;;;;;;13.23;8.55;;;;;;;20.50;57.94;101754.56;5071750;28;20028;-84
2022/05/20 09:00:55;;;;;;;14.40;9.32;;;;;;;20.73;56.47;101762.91;5070980;28;20517;-83
2022/05/20 09:03:22;;;;;;;13.82;9.25;;;;;;;20.77;56.86;101761.59;5052251;28;20112;-83
2022/05/20 09:05:48;;;;;;;14.82;10.93;;;;;;;20.69;55.82;101762.38;5071042;28;20024;-83
2022/05/20 09:08:25;;;;;;;13.90;10.27;;;;;;;20.70;57.75;101755.19;5071972;28;20024;-83
2022/05/20 09:10:56;;;;;;;15.40;10.98;;;;;;;20.72;57.05;101751.34;5070961;28;20043;-83
2022/05/20 09:16:29;;;;;;;18.70;13.40;;;;;;;20.46;57.89;101735.31;5071899;28;20181;-83
2022/05/20 09:19:14;;;;;;;16.08;12.30;;;;;;;20.59;59.14;101733.06;5051997;28;20063;-84
2022/05/20 09:21:44;;;;;;;15.38;11.30;;;;;;;20.84;57.90;101722.53;5052523;28;20020;-84
2022/05/20 09:24:18;;;;;;;14.63;11.57;;;;;;;20.79;57.91;101724.81;5062774;28;20474;-84
2022/05/20 09:26:50;;;;;;;16.67;13.23;;;;;;;20.74;56.64;101703.06;5068875;28;20028;-83
2022/05/20 09:29:47;;;;;;;17.10;13.13;;;;;;;20.96;57.88;101683.78;5069379;28;20508;-85
2022/05/20 09:32:35;;;;;;;19.48;13.10;;;;;;;21.24;57.58;101681.75;5069671;28;20041;-85
2022/05/20 09:35:06;;;;;;;17.23;13.38;;;;;;;21.22;55.29;101681.88;5053560;28;20366;-85
2022/05/20 09:37:34;;;;;;;17.02;12.57;;;;;;;21.37;55.51;101675.94;5065323;28;20472;-85
2022/05/20 09:40:25;;;;;;;20.10;12.27;;;;;;;21.66;57.50;101678.16;5061487;28;20035;-82
2022/05/20 09:43:02;;;;;;;21.48;15.10;;;;;;;21.82;57.26;101664.78;5055117;28;20069;-85
2022/05/20 09:45:28;;;;;;;20.23;14.77;;;;;;;21.93;54.16;101666.28;5056103;28;20036;-85
2022/05/20 09:47:56;;;;;;;20.55;15.75;;;;;;;22.01;54.71;101658.22;5067384;28;20028;-86
2022/05/20 09:50:38;;;;;;;21.13;16.20;;;;;;;22.08;56.11;101637.84;5060112;28;20453;-85
2022/05/20 09:53:33;;;;;;;18.25;15.60;;;;;;;22.22;56.48;101630.94;5062471;28;20031;-85
2022/05/20 09:56:28;;;;;;;20.27;16.00;;;;;;;22.28;56.76;101633.78;5068541;28;20054;-85
2022/05/20 09:59:36;;;;;;;20.02;16.60;;;;;;;22.40;55.46;101627.03;5068701;28;20027;-85
2022/05/20 10:02:29;;;;;;;21.40;16.35;;;;;;;22.40;55.32;101605.59;5041226;28;20441;-85
2022/05/20 10:05:10;;;;;;;;;;;;;;;22.48;56.91;101597.53;5051883;28;20029;-85
2022/05/20 10:07:59;;;;;;;25.70;16.23;;;;;;;22.43;56.88;101589.19;5050543;28;19909;-85
2022/05/20 10:10:28;;;;;;;21.42;15.88;;;;;;;22.26;55.62;101576.81;5068140;28;20056;-86
2022/05/20 10:12:57;;;;;;;21.58;15.20;;;;;;;22.23;56.78;101574.47;5068791;28;20025;-86
2022/05/20 10:15:29;;;;;;;20.42;15.13;;;;;;;22.27;57.05;101567.75;5070397;28;20029;-86
2022/05/20 10:18:05;;;;;;;17.58;14.52;;;;;;;22.17;55.50;101561.75;5068326;28;20027;-86
2022/05/20 10:20:34;;;;;;;21.17;14.20;;;;;;;22.13;56.26;101555.06;5070406;28;20025;-86
2022/05/20 10:23:09;;;;;;;22.35;15.60;;;;;;;22.22;56.03;101546.00;5070030;28;20315;-86
2022/05/20 10:25:51;;;;;;;20.23;16.33;;;;;;;22.30;56.20;101534.41;5052503;28;20033;-86
2022/05/20 10:34:27;;;;;;;20.15;15.82;;;;;;;22.13;56.54;101518.38;5069414;28;20063;-87
2022/05/20 10:37:05;;;;;;;18.05;14.88;;;;;;;22.00;57.01;101520.72;5069147;28;20060;-86
2022/05/20 10:40:08;;;;;;;20.30;14.77;;;;;;;21.90;57.56;101504.84;5068775;28;20013;-86
2022/05/20 10:42:52;;;;;;;;;;;;;;;21.90;57.20;101502.16;5038016;28;20029;-84
2022/05/20 10:49:03;;;;;;;21.95;13.30;;;;;;;21.50;58.64;101467.41;5002285;28;20139;-86
2022/05/20 10:51:47;;;;;;;16.48;12.65;;;;;;;21.52;57.18;101443.97;5010628;28;20032;-86
2022/05/20 10:54:34;;;;;;;20.25;13.38;;;;;;;21.44;57.47;101449.34;5066861;28;20023;-87
2022/05/20 10:57:42;;;;;;;17.15;12.73;;;;;;;21.43;58.31;101423.56;5067881;28;20099;-87
2022/05/20 11:00:08;;;;;;;21.15;14.15;;;;;;;21.27;57.28;101414.56;5046098;28;20093;-87
2022/05/20 11:02:48;;;;;;;19.98;13.93;;;;;;;21.22;58.34;101395.47;5069461;28;20032;-86
2022/05/20 11:05:51;;;;;;;19.65;14.63;;;;;;;21.25;59.00;101389.81;5068861;28;20064;-86
2022/05/20 11:08:22;;;;;;;16.73;14.60;;;;;;;21.14;58.79;101374.06;5037931;28;20038;-87
2022/05/20 11:10:59;;;;;;;20.92;14.75;;;;;;;21.24;59.29;101365.91;5047266;28;20396;-86
2022/05/20 11:13:48;;;;;;;19.65;15.30;;;;;;;21.33;59.59;101361.34;5070583;28;20028;-86
2022/05/20 11:16:52;;;;;;;21.88;15.02;;;;;;;21.46;59.59;101364.31;5070203;28;20460;-87
2022/05/20 11:19:48;;;;;;;24.73;16.35;;;;;;;21.36;59.07;101361.00;5055846;28;20476;-87
2022/05/20 11:22:47;;;;;;;24.83;17.00;;;;;;;21.36;59.52;101355.66;5048979;28;20033;-87
2022/05/20 11:25:37;;;;;;;21.45;16.85;;;;;;;21.17;60.27;101344.28;5067299;28;20036;-87
2022/05/20 11:28:35;;;;;;;19.77;16.95;;;;;;;21.26;60.93;101347.81;5051430;28;20059;-87
2022/05/20 11:31:39;;;;;;;26.00;20.20;;;;;;;21.22;60.83;101331.25;5053881;28;20400;-87
2022/05/20 11:34:40;;;;;;;28.40;20.95;;;;;;;21.19;61.12;101339.59;5052838;28;20366;-87
2022/05/20 11:37:24;;;;;;;29.75;21.67;;;;;;;21.08;61.57;101334.59;5053031;28;20025;-87
2022/05/20 11:40:16;;;;;;;28.00;21.55;;;;;;;21.02;62.39;101326.41;5072067;28;20484;-87
2022/05/20 11:43:06;;;;;;;27.73;23.00;;;;;;;20.92;63.13;101324.75;5071340;28;20086;-87
2022/05/20 11:45:40;;;;;;;27.50;22.90;;;;;;;20.88;63.64;101323.44;5062921;28;20387;-87
2022/05/20 11:48:14;;;;;;;31.10;23.90;;;;;;;20.85;63.84;101317.59;5072515;28;20503;-88
2022/05/20 11:50:54;;;;;;;26.92;22.17;;;;;;;20.78;64.22;101295.16;5062545;28;20487;-88
2022/05/20 11:53:41;;;;;;;30.15;22.77;;;;;;;20.71;64.25;101273.63;5068141;28;20361;-88
2022/05/20 11:56:37;;;;;;;29.90;23.80;;;;;;;20.58;65.27;101263.44;5054974;28;20994;-87
2022/05/20 11:59:17;;;;;;;28.75;23.52;;;;;;;20.54;65.75;101280.81;5073217;28;20025;-87
2022/05/20 12:01:45;;;;;;;30.48;24.90;;;;;;;20.50;67.05;101281.34;5054157;28;20051;-88
2022/05/20 12:04:12;;;;;;;34.15;24.50;;;;;;;20.46;68.27;101318.25;5054837;28;20039;-88
2022/05/20 12:06:42;;;;;;;35.28;28.27;;;;;;;20.43;70.07;101339.97;5065929;28;20093;-86